Time;durP1;ratioP1;P1;durP2;ratioP2;P2;SDS_P1;SDS_P2;PMS_P1;PMS_P2;Temp;Humidity;BMP_temperature;BMP_pressure;BME280_temperature;BME280_humidity;BME280_pressure;Samples;Min_cycle;Max_cycle;Signal;HPM_P1;HPM_P2
2023/08/09 00:00:41;;;;;;;2.30;2.10;;;;;;;24.81;53.79;98473.19;4917526;28;103979;-60
2023/08/09 00:03:09;;;;;;;2.83;1.97;;;;;;;24.86;53.41;98470.69;4913947;28;103048;-60
2023/08/09 00:05:38;;;;;;;2.53;2.22;;;;;;;24.55;54.91;98463.13;4917092;28;103982;-60
2023/08/09 00:08:06;;;;;;;2.40;2.20;;;;;;;24.53;54.93;98466.06;4919906;28;103350;-60
2023/08/09 00:10:35;;;;;;;2.25;2.08;;;;;;;24.73;53.97;98461.50;4915043;28;102842;-60
2023/08/09 00:13:04;;;;;;;3.42;2.30;;;;;;;24.50;54.88;98465.63;4919111;28;104083;-60
2023/08/09 00:15:35;;;;;;;2.10;2.00;;;;;;;24.89;54.65;98460.31;4918355;28;104651;-60
2023/08/09 00:18:03;;;;;;;2.45;2.25;;;;;;;24.71;53.57;98458.16;4915480;28;104311;-60
2023/08/09 00:20:32;;;;;;;2.27;2.07;;;;;;;24.72;53.50;98457.13;4915343;28;102855;-60
2023/08/09 00:23:04;;;;;;;2.17;1.92;;;;;;;24.41;54.29;98459.59;4920750;28;103005;-60
2023/08/09 00:25:33;;;;;;;2.80;2.20;;;;;;;24.07;55.58;98459.66;4915463;28;104801;-60
2023/08/09 00:28:02;;;;;;;2.53;2.20;;;;;;;24.30;55.00;98460.19;4914459;28;103239;-60
2023/08/09 00:30:30;;;;;;;2.05;1.95;;;;;;;24.61;53.84;98468.56;4911002;28;102755;-60
2023/08/09 00:33:00;;;;;;;2.40;2.20;;;;;;;24.47;54.73;98461.47;4920115;28;102845;-60
2023/08/09 00:35:30;;;;;;;2.73;2.10;;;;;;;24.57;54.69;98450.25;4901025;28;106745;-60
2023/08/09 00:37:58;;;;;;;2.33;2.13;;;;;;;24.49;54.84;98445.88;4916471;28;103438;-60
2023/08/09 00:40:27;;;;;;;2.60;2.30;;;;;;;24.46;55.86;98443.59;4900144;28;102802;-59
2023/08/09 00:42:56;;;;;;;2.22;2.03;;;;;;;24.39;56.38;98445.47;4914684;28;104167;-60
2023/08/09 00:45:24;;;;;;;2.80;2.42;;;;;;;23.71;58.67;98449.13;4916874;28;104220;-59
2023/08/09 00:47:52;;;;;;;2.92;2.50;;;;;;;23.76;58.36;98446.66;4915521;28;103265;-60
2023/08/09 00:50:21;;;;;;;2.65;2.45;;;;;;;23.75;58.98;98444.16;4922739;28;102676;-60
2023/08/09 00:52:52;;;;;;;2.33;2.13;;;;;;;23.92;58.21;98440.06;4920283;28;103933;-59
2023/08/09 00:55:20;;;;;;;2.20;2.00;;;;;;;24.11;57.50;98434.78;4896864;28;103721;-60
2023/08/09 00:57:52;;;;;;;2.85;2.40;;;;;;;24.08;57.77;98431.63;4899409;28;103496;-60
2023/08/09 01:00:21;;;;;;;2.83;2.40;;;;;;;23.91;58.22;98444.66;4920828;28;102751;-59
2023/08/09 01:02:49;;;;;;;2.25;2.05;;;;;;;23.85;58.53;98444.63;4916188;28;102746;-60
2023/08/09 01:05:17;;;;;;;3.72;2.80;;;;;;;23.93;59.31;98447.97;4900582;28;104254;-59
2023/08/09 01:07:52;;;;;;;2.45;2.25;;;;;;;24.00;59.51;98435.31;4904758;28;104046;-60
2023/08/09 01:10:27;;;;;;;2.40;2.20;;;;;;;23.72;59.60;98439.16;4895037;28;102756;-59
2023/08/09 01:13:03;;;;;;;2.72;2.53;;;;;;;23.78;59.95;98432.94;4916129;28;102976;-60
2023/08/09 01:15:33;;;;;;;3.63;2.20;;;;;;;23.31;62.75;98437.25;4917695;28;103132;-60
2023/08/09 01:18:03;;;;;;;2.60;2.40;;;;;;;22.94;64.35;98435.72;4902083;28;103425;-60
2023/08/09 01:20:34;;;;;;;2.67;2.47;;;;;;;23.55;63.51;98431.38;4897222;28;102778;-59
2023/08/09 01:23:04;;;;;;;2.40;2.22;;;;;;;23.96;62.89;98434.09;4913270;28;103062;-60
2023/08/09 01:25:34;;;;;;;2.88;2.50;;;;;;;24.19;62.45;98428.38;4915255;28;103431;-60
2023/08/09 01:28:06;;;;;;;2.70;2.50;;;;;;;24.27;62.01;98422.78;4916185;28;103434;-60
2023/08/09 01:30:34;;;;;;;2.67;2.10;;;;;;;24.21;63.56;98418.22;4910473;28;102827;-59
2023/08/09 01:33:02;;;;;;;2.80;2.30;;;;;;;24.19;63.23;98420.28;4919587;28;104341;-60
2023/08/09 01:35:37;;;;;;;2.93;2.13;;;;;;;22.86;65.83;98410.81;4913762;28;103739;-62
2023/08/09 01:38:09;;;;;;;2.28;2.15;;;;;;;23.70;63.68;98425.88;4912544;28;103602;-62
2023/08/09 01:40:40;;;;;;;2.90;2.20;;;;;;;22.99;66.25;98430.59;4917850;28;102676;-62
2023/08/09 01:43:09;;;;;;;2.15;1.95;;;;;;;22.96;67.47;98427.47;4916242;28;102787;-62
2023/08/09 01:45:38;;;;;;;2.50;2.30;;;;;;;23.14;67.27;98435.88;4911904;28;104308;-62
2023/08/09 01:48:07;;;;;;;3.15;1.90;;;;;;;22.61;67.52;98444.53;4917007;28;103274;-62
2023/08/09 01:50:40;;;;;;;2.70;2.10;;;;;;;22.70;69.75;98438.00;4910159;28;103088;-63
2023/08/09 01:53:09;;;;;;;2.55;2.08;;;;;;;23.06;67.08;98439.56;4914185;28;102944;-62
2023/08/09 01:55:39;;;;;;;3.45;2.38;;;;;;;22.97;67.99;98445.28;4898779;28;104194;-63
2023/08/09 01:58:07;;;;;;;2.40;2.10;;;;;;;23.24;67.08;98447.16;4895384;28;103437;-63
2023/08/09 02:00:35;;;;;;;2.20;2.00;;;;;;;23.51;66.55;98457.09;4914898;28;102900;-63
2023/08/09 02:03:04;;;;;;;2.45;2.15;;;;;;;23.82;65.45;98462.03;4916811;28;103969;-63
2023/08/09 02:05:32;;;;;;;2.38;2.05;;;;;;;23.00;67.35;98461.06;4911669;28;104289;-63
2023/08/09 02:08:00;;;;;;;2.60;2.15;;;;;;;22.85;70.04;98463.00;4906946;28;103298;-63
2023/08/09 02:10:28;;;;;;;2.08;1.90;;;;;;;23.11;69.87;98468.59;4916142;28;102651;-63
2023/08/09 02:12:58;;;;;;;2.55;2.35;;;;;;;23.03;69.93;98466.88;4918357;28;104807;-63
2023/08/09 02:15:26;;;;;;;2.90;2.40;;;;;;;23.25;68.73;98466.81;4899968;28;103987;-63
2023/08/09 02:17:57;;;;;;;1.80;1.70;;;;;;;23.62;66.98;98470.03;4913867;28;104220;-63
2023/08/09 02:20:27;;;;;;;1.70;1.60;;;;;;;23.86;67.27;98465.16;4891880;28;103016;-63
2023/08/09 02:22:56;;;;;;;2.25;2.05;;;;;;;23.95;67.46;98462.09;4917593;28;103825;-63
2023/08/09 02:25:24;;;;;;;2.90;2.70;;;;;;;23.96;67.59;98473.72;4913450;28;104580;-63
2023/08/09 02:27:51;;;;;;;2.50;2.30;;;;;;;23.69;69.24;98466.53;4897617;28;104221;-63
2023/08/09 02:30:22;;;;;;;3.22;3.03;;;;;;;23.31;70.61;98471.44;4909650;28;102901;-63
2023/08/09 02:32:53;;;;;;;4.10;3.70;;;;;;;23.14;72.58;98472.75;4908547;28;103194;-63
2023/08/09 02:35:23;;;;;;;3.50;3.20;;;;;;;22.92;74.23;98463.88;4897670;28;105404;-63
2023/08/09 02:37:53;;;;;;;3.90;3.60;;;;;;;23.08;72.77;98469.81;4913884;28;104370;-63
2023/08/09 02:40:22;;;;;;;3.37;3.07;;;;;;;23.29;72.08;98466.25;4918245;28;102899;-63
2023/08/09 02:42:49;;;;;;;3.13;2.92;;;;;;;23.46;70.90;98467.66;4900230;28;103950;-63
2023/08/09 02:45:18;;;;;;;2.70;2.50;;;;;;;23.62;70.11;98470.03;4918158;28;103304;-63
2023/08/09 02:47:47;;;;;;;2.78;2.58;;;;;;;23.30;70.81;98457.13;4916479;28;103140;-63
2023/08/09 02:50:16;;;;;;;2.85;2.58;;;;;;;23.38;70.97;98464.28;4914110;28;102774;-62
2023/08/09 02:52:44;;;;;;;4.03;2.63;;;;;;;23.45;70.57;98460.59;4916446;28;103383;-62
2023/08/09 02:55:13;;;;;;;2.20;2.00;;;;;;;23.59;70.49;98462.34;4913019;28;104563;-62
2023/08/09 02:57:41;;;;;;;3.17;2.60;;;;;;;23.31;71.43;98469.59;4916961;28;103258;-62
2023/08/09 03:00:10;;;;;;;2.43;2.23;;;;;;;23.47;71.08;98463.91;4915907;28;102906;-62
2023/08/09 03:02:38;;;;;;;3.00;2.20;;;;;;;23.42;71.40;98466.38;4914190;28;104142;-62
2023/08/09 03:05:09;;;;;;;2.50;2.23;;;;;;;23.78;70.35;98460.75;4897067;28;104148;-62
2023/08/09 03:07:37;;;;;;;2.33;2.03;;;;;;;23.96;69.42;98461.06;4913331;28;102701;-59
2023/08/09 03:10:07;;;;;;;2.42;2.20;;;;;;;23.73;70.10;98465.09;4913072;28;102774;-60
2023/08/09 03:12:35;;;;;;;2.25;2.05;;;;;;;23.59;70.72;98464.19;4884450;28;103886;-59
2023/08/09 03:15:07;;;;;;;1.90;1.80;;;;;;;23.67;71.07;98453.22;4914649;28;103692;-59
2023/08/09 03:17:35;;;;;;;2.70;2.50;;;;;;;23.15;73.65;98453.72;4870548;28;104502;-59
2023/08/09 03:20:08;;;;;;;3.70;2.47;;;;;;;23.34;72.85;98455.72;4907313;28;103071;-60
2023/08/09 03:22:38;;;;;;;2.30;2.08;;;;;;;23.66;71.27;98452.41;4905113;28;102802;-59
2023/08/09 03:25:08;;;;;;;2.30;2.10;;;;;;;23.84;70.46;98459.13;4886546;28;105054;-59
2023/08/09 03:27:37;;;;;;;2.50;2.30;;;;;;;23.72;70.41;98456.16;4894304;28;103254;-59
2023/08/09 03:30:08;;;;;;;2.28;2.08;;;;;;;22.97;72.36;98456.06;4892851;28;103057;-59
2023/08/09 03:32:37;;;;;;;2.83;2.10;;;;;;;23.15;70.85;98453.72;4916127;28;104592;-59
2023/08/09 03:35:07;;;;;;;2.55;2.35;;;;;;;22.75;71.18;98457.09;4916387;28;104181;-59
2023/08/09 03:37:35;;;;;;;2.20;2.00;;;;;;;23.12;69.63;98448.72;4896064;28;103584;-60
2023/08/09 03:40:12;;;;;;;4.95;1.95;;;;;;;22.77;70.24;98453.19;4916900;28;102887;-59
2023/08/09 03:42:43;;;;;;;1.85;1.75;;;;;;;22.79;69.17;98459.22;4893004;28;102894;-59
2023/08/09 03:45:12;;;;;;;1.80;1.70;;;;;;;22.54;71.52;98461.44;4916015;28;105154;-59
2023/08/09 03:47:41;;;;;;;2.28;1.88;;;;;;;22.77;70.04;98461.28;4901375;28;105692;-59
2023/08/09 03:50:11;;;;;;;2.28;2.08;;;;;;;22.72;69.89;98461.03;4922064;28;102852;-59
2023/08/09 03:52:40;;;;;;;1.85;1.70;;;;;;;22.93;68.77;98466.38;4896816;28;102907;-59
2023/08/09 03:55:10;;;;;;;2.47;2.28;;;;;;;22.44;69.90;98460.94;4916238;28;104317;-59
2023/08/09 03:57:38;;;;;;;2.85;1.90;;;;;;;23.00;68.23;98461.88;4900955;28;104142;-59
2023/08/09 04:00:09;;;;;;;2.28;2.08;;;;;;;22.71;68.07;98466.63;4917072;28;102786;-59
2023/08/09 04:02:40;;;;;;;2.10;1.90;;;;;;;22.90;67.03;98463.25;4915832;28;104145;-59
2023/08/09 04:05:08;;;;;;;3.80;2.20;;;;;;;21.89;71.64;98476.84;4916108;28;104332;-59
2023/08/09 04:07:37;;;;;;;2.20;2.00;;;;;;;22.59;69.41;98476.19;4918203;28;103328;-59
2023/08/09 04:10:07;;;;;;;2.42;1.90;;;;;;;22.65;69.75;98470.06;4918689;28;102822;-60
2023/08/09 04:12:36;;;;;;;1.90;1.80;;;;;;;22.99;67.67;98467.44;4915803;28;103927;-60
2023/08/09 04:15:08;;;;;;;2.93;1.90;;;;;;;22.62;69.27;98463.19;4916729;28;104142;-57
2023/08/09 04:17:36;;;;;;;4.32;2.20;;;;;;;22.61;68.68;98464.19;4915432;28;105262;-57
2023/08/09 04:20:09;;;;;;;2.78;1.80;;;;;;;22.58;69.11;98461.88;4917928;28;102667;-58
2023/08/09 04:22:37;;;;;;;2.28;1.80;;;;;;;22.75;68.18;98457.09;4919614;28;104152;-58
2023/08/09 04:25:05;;;;;;;2.53;2.10;;;;;;;22.94;66.79;98453.75;4917380;28;103769;-57
2023/08/09 04:27:33;;;;;;;2.30;2.10;;;;;;;23.02;66.11;98450.91;4916913;28;104025;-59
2023/08/09 04:30:05;;;;;;;2.40;2.20;;;;;;;22.76;67.66;98453.41;4887448;28;102790;-60
2023/08/09 04:32:33;;;;;;;2.38;2.10;;;;;;;22.86;66.93;98449.34;4922352;28;103896;-59
2023/08/09 04:35:01;;;;;;;1.83;1.70;;;;;;;22.91;65.88;98451.44;4921409;28;104295;-60
2023/08/09 04:37:29;;;;;;;2.17;1.98;;;;;;;23.09;65.32;98449.09;4919279;28;103437;-60
2023/08/09 04:39:57;;;;;;;2.33;2.00;;;;;;;22.78;65.97;98456.72;4917022;28;103050;-58
2023/08/09 04:42:25;;;;;;;2.30;1.92;;;;;;;22.94;65.64;98451.06;4900084;28;103987;-57
2023/08/09 04:44:52;;;;;;;2.10;1.90;;;;;;;23.08;65.69;98458.22;4919735;28;103903;-57
2023/08/09 04:47:22;;;;;;;3.00;1.90;;;;;;;23.14;65.45;98445.81;4915359;28;103290;-58
2023/08/09 04:49:52;;;;;;;2.17;1.97;;;;;;;23.35;64.66;98457.38;4914307;28;102799;-58
2023/08/09 04:52:20;;;;;;;2.72;1.85;;;;;;;23.27;64.77;98446.75;4918015;28;102733;-57
2023/08/09 04:54:48;;;;;;;1.90;1.70;;;;;;;23.55;64.91;98455.66;4919101;28;103300;-58
2023/08/09 04:57:19;;;;;;;1.90;1.65;;;;;;;23.62;63.76;98456.53;4915929;28;103250;-58
2023/08/09 04:59:47;;;;;;;2.20;1.90;;;;;;;23.61;65.00;98457.56;4919410;28;102852;-58
2023/08/09 05:02:15;;;;;;;2.10;1.90;;;;;;;23.71;65.57;98449.13;4912755;28;103873;-58
2023/08/09 05:04:44;;;;;;;2.47;2.00;;;;;;;23.79;64.83;98450.81;4917033;28;104162;-58
2023/08/09 05:07:15;;;;;;;2.20;1.97;;;;;;;23.82;64.56;98450.41;4918374;28;103237;-58
2023/08/09 05:09:43;;;;;;;2.20;2.00;;;;;;;23.73;64.04;98441.66;4914573;28;104045;-58
2023/08/09 05:12:11;;;;;;;2.10;1.90;;;;;;;23.82;63.80;98445.84;4920375;28;102914;-58
2023/08/09 05:14:39;;;;;;;2.28;1.73;;;;;;;23.85;63.65;98450.00;4920111;28;104308;-58
2023/08/09 05:17:07;;;;;;;2.50;2.30;;;;;;;23.77;62.71;98442.09;4921034;28;103222;-58
2023/08/09 05:19:36;;;;;;;2.10;2.00;;;;;;;23.64;63.52;98438.28;4914810;28;102665;-58
2023/08/09 05:22:06;;;;;;;2.30;2.10;;;;;;;23.63;63.45;98441.19;4922757;28;102855;-57
2023/08/09 05:24:34;;;;;;;2.53;2.33;;;;;;;23.55;63.48;98434.09;4894508;28;104389;-57
2023/08/09 05:27:02;;;;;;;2.80;2.17;;;;;;;23.44;65.56;98436.50;4917661;28;104338;-58
2023/08/09 05:29:31;;;;;;;2.10;1.90;;;;;;;23.58;65.68;98444.47;4900040;28;102727;-57
2023/08/09 05:31:59;;;;;;;2.33;1.80;;;;;;;23.47;66.04;98446.91;4919419;28;102651;-58
2023/08/09 05:34:27;;;;;;;2.40;2.15;;;;;;;22.82;64.85;98448.06;4904479;28;104505;-58
2023/08/09 05:36:55;;;;;;;3.10;1.80;;;;;;;22.84;65.13;98453.25;4921587;28;103249;-57
2023/08/09 05:39:25;;;;;;;2.00;1.80;;;;;;;22.87;66.70;98450.19;4897802;28;102985;-57
2023/08/09 05:41:53;;;;;;;2.47;2.05;;;;;;;23.17;63.04;98442.72;4900806;28;103828;-57
2023/08/09 05:44:21;;;;;;;2.15;1.75;;;;;;;23.24;62.33;98447.16;4918469;28;103817;-58
2023/08/09 05:46:49;;;;;;;2.25;1.60;;;;;;;23.35;62.19;98443.91;4916179;28;104631;-58
2023/08/09 05:49:18;;;;;;;2.47;1.75;;;;;;;23.26;61.73;98438.88;4917638;28;102863;-58
2023/08/09 05:51:48;;;;;;;2.28;1.80;;;;;;;23.59;61.80;98446.16;4916914;28;103869;-57
2023/08/09 05:54:17;;;;;;;4.40;2.20;;;;;;;23.00;64.08;98445.72;4916161;28;103065;-57
2023/08/09 05:56:47;;;;;;;3.73;1.83;;;;;;;23.61;62.35;98449.47;4915601;28;104505;-58
2023/08/09 05:59:15;;;;;;;2.35;1.85;;;;;;;23.80;60.62;98457.88;4914450;28;102689;-57
2023/08/09 06:01:43;;;;;;;2.30;1.73;;;;;;;23.78;60.83;98449.97;4916492;28;102850;-58
2023/08/09 06:04:12;;;;;;;3.00;1.90;;;;;;;23.97;60.01;98461.91;4884854;28;104166;-57
2023/08/09 06:06:40;;;;;;;2.05;1.85;;;;;;;23.76;60.70;98462.84;4916598;28;103413;-58
2023/08/09 06:09:09;;;;;;;1.97;1.80;;;;;;;23.96;60.48;98460.22;4913561;28;103604;-58
2023/08/09 06:11:37;;;;;;;3.40;1.90;;;;;;;24.07;61.16;98470.44;4917744;28;102937;-58
2023/08/09 06:14:06;;;;;;;1.77;1.60;;;;;;;24.53;59.00;98467.91;4895769;28;103538;-58
2023/08/09 06:16:36;;;;;;;2.30;2.05;;;;;;;24.60;62.23;98466.88;4916165;28;103278;-58
2023/08/09 06:19:08;;;;;;;2.38;1.65;;;;;;;24.98;61.55;98469.03;4901899;28;102842;-58
2023/08/09 06:21:36;;;;;;;2.28;1.70;;;;;;;24.38;60.69;98473.47;4913337;28;104069;-58
2023/08/09 06:24:06;;;;;;;2.30;1.73;;;;;;;24.13;59.35;98481.28;4921043;28;104068;-58
2023/08/09 06:26:34;;;;;;;2.75;1.90;;;;;;;24.66;58.15;98470.63;4901959;28;103429;-58
2023/08/09 06:29:06;;;;;;;4.85;2.08;;;;;;;24.40;58.57;98475.97;4912589;28;102735;-60
2023/08/09 06:31:35;;;;;;;2.17;1.60;;;;;;;24.75;58.16;98480.22;4918223;28;102761;-60
2023/08/09 06:34:03;;;;;;;2.70;1.90;;;;;;;24.81;56.99;98483.97;4919285;28;104274;-60
2023/08/09 06:36:31;;;;;;;2.10;1.70;;;;;;;24.69;58.30;98492.66;4916772;28;104068;-60
2023/08/09 06:38:59;;;;;;;3.92;1.90;;;;;;;24.36;59.85;98485.53;4904449;28;102762;-60
2023/08/09 06:41:26;;;;;;;1.95;1.70;;;;;;;24.05;58.81;98492.25;4922337;28;103933;-60
2023/08/09 06:43:57;;;;;;;2.30;1.87;;;;;;;23.89;58.87;98495.25;4915960;28;104351;-60
2023/08/09 06:46:27;;;;;;;2.40;1.98;;;;;;;24.47;58.12;98483.06;4918048;28;103269;-60
2023/08/09 06:48:55;;;;;;;2.53;1.83;;;;;;;24.07;58.26;98492.03;4916445;28;103042;-60
2023/08/09 06:51:23;;;;;;;2.33;1.85;;;;;;;24.37;57.38;98490.69;4918289;28;104023;-58
2023/08/09 06:53:51;;;;;;;3.58;2.10;;;;;;;24.31;57.85;98494.22;4922383;28;103731;-58
2023/08/09 06:56:19;;;;;;;2.70;1.98;;;;;;;24.73;55.99;98495.75;4919713;28;103216;-58
2023/08/09 06:58:47;;;;;;;2.10;1.88;;;;;;;24.68;56.96;98499.09;4915418;28;102821;-58
2023/08/09 07:01:15;;;;;;;2.13;1.90;;;;;;;24.45;57.55;98500.50;4923226;28;102943;-58
2023/08/09 07:03:46;;;;;;;3.50;2.08;;;;;;;24.57;56.69;98505.09;4924188;28;104054;-58
2023/08/09 07:06:14;;;;;;;2.60;2.00;;;;;;;25.12;56.18;98503.13;4912809;28;104341;-60
2023/08/09 07:08:42;;;;;;;2.30;2.10;;;;;;;25.49;54.56;98509.81;4917965;28;102731;-58
2023/08/09 07:11:11;;;;;;;2.23;1.90;;;;;;;25.43;57.34;98514.16;4923468;28;103079;-58
2023/08/09 07:13:41;;;;;;;2.17;1.97;;;;;;;25.45;58.71;98520.16;4920972;28;103398;-58
2023/08/09 07:16:09;;;;;;;2.40;2.20;;;;;;;25.70;56.22;98528.47;4923300;28;103478;-58
2023/08/09 07:18:37;;;;;;;3.13;2.83;;;;;;;25.68;56.05;98531.41;4916546;28;104462;-58
2023/08/09 07:21:07;;;;;;;2.75;2.10;;;;;;;25.82;56.71;98533.03;4902111;28;103800;-58
2023/08/09 07:23:35;;;;;;;3.00;2.15;;;;;;;25.68;54.75;98527.88;4919422;28;104008;-58
2023/08/09 07:26:22;;;;;;;3.10;2.08;;;;;;;24.90;55.88;98531.38;4917281;28;104355;-59
2023/08/09 07:28:50;;;;;;;2.17;2.00;;;;;;;25.33;55.53;98532.66;4905891;28;102673;-58
2023/08/09 07:31:20;;;;;;;4.07;2.28;;;;;;;25.18;56.75;98530.13;4922102;28;102852;-59
2023/08/09 07:33:48;;;;;;;2.80;1.83;;;;;;;25.49;56.33;98537.66;4922381;28;103349;-58
2023/08/09 07:36:17;;;;;;;3.13;2.05;;;;;;;25.90;53.67;98532.81;4922435;28;103228;-58
2023/08/09 07:38:45;;;;;;;2.85;1.90;;;;;;;25.98;54.36;98530.91;4921339;28;102717;-58
2023/08/09 07:41:14;;;;;;;2.53;2.03;;;;;;;26.45;54.15;98535.97;4921242;28;102875;-58
2023/08/09 07:43:42;;;;;;;2.45;2.03;;;;;;;25.87;54.24;98535.94;4922750;28;103808;-58
2023/08/09 07:46:10;;;;;;;2.30;2.10;;;;;;;26.07;53.26;98535.88;4920968;28;103429;-58
2023/08/09 07:48:38;;;;;;;2.72;2.03;;;;;;;25.62;56.15;98537.66;4922542;28;102728;-58
2023/08/09 07:51:11;;;;;;;2.65;2.30;;;;;;;25.93;54.23;98537.81;4918765;28;102878;-58
2023/08/09 07:53:41;;;;;;;5.20;2.22;;;;;;;25.64;54.26;98540.97;4922647;28;103359;-58
2023/08/09 07:56:12;;;;;;;3.30;2.10;;;;;;;25.48;56.29;98546.81;4919596;28;103236;-58
2023/08/09 07:58:39;;;;;;;2.70;2.00;;;;;;;25.77;55.43;98549.06;4900837;28;102953;-58
2023/08/09 08:01:08;;;;;;;3.45;2.33;;;;;;;25.79;54.94;98548.88;4916334;28;103687;-58
2023/08/09 08:03:36;;;;;;;3.10;2.00;;;;;;;26.31;53.83;98553.31;4918278;28;104155;-58
2023/08/09 08:06:04;;;;;;;2.57;2.10;;;;;;;26.18;54.64;98564.19;4919990;28;104242;-58
2023/08/09 08:08:32;;;;;;;2.25;1.80;;;;;;;26.56;53.69;98556.94;4921217;28;102745;-59
2023/08/09 08:11:02;;;;;;;2.10;1.80;;;;;;;26.50;53.49;98564.06;4902763;28;102832;-60
2023/08/09 08:13:31;;;;;;;3.28;2.40;;;;;;;25.98;54.80;98557.97;4918584;28;103906;-60
2023/08/09 08:15:59;;;;;;;2.28;2.08;;;;;;;26.27;53.68;98569.19;4919425;28;103284;-60
2023/08/09 08:18:27;;;;;;;2.60;2.40;;;;;;;26.03;54.67;98567.13;4919639;28;102944;-60
2023/08/09 08:20:55;;;;;;;5.97;2.33;;;;;;;24.88;57.55;98582.06;4920073;28;104081;-60
2023/08/09 08:23:23;;;;;;;2.30;2.10;;;;;;;24.11;58.47;98585.88;4906606;28;104019;-60
2023/08/09 08:25:51;;;;;;;2.25;1.83;;;;;;;24.98;56.96;98583.38;4904949;28;104113;-60
2023/08/09 08:28:21;;;;;;;2.90;1.85;;;;;;;25.10;56.08;98591.66;4922545;28;102715;-60
2023/08/09 08:30:49;;;;;;;2.30;1.80;;;;;;;24.93;56.05;98601.19;4905127;28;103790;-60
2023/08/09 08:33:17;;;;;;;1.88;1.67;;;;;;;25.22;55.80;98603.56;4922037;28;103615;-60
2023/08/09 08:35:48;;;;;;;2.13;1.80;;;;;;;25.56;54.99;98595.28;4901551;28;103383;-60
2023/08/09 08:38:30;;;;;;;3.33;1.70;;;;;;;25.60;55.15;98598.41;4920848;28;102802;-60
2023/08/09 08:41:00;;;;;;;1.95;1.83;;;;;;;25.40;57.30;98609.19;4923632;28;104044;-60
2023/08/09 08:43:29;;;;;;;3.03;1.63;;;;;;;24.90;58.18;98607.03;4922687;28;103043;-60
2023/08/09 08:45:58;;;;;;;3.13;1.60;;;;;;;25.66;56.25;98602.97;4919295;28;103288;-60
2023/08/09 08:48:26;;;;;;;2.70;1.90;;;;;;;25.27;57.18;98614.56;4922504;28;104456;-60
2023/08/09 08:50:57;;;;;;;4.18;2.08;;;;;;;25.23;57.03;98614.19;4913778;28;102808;-60
2023/08/09 08:53:25;;;;;;;2.05;1.80;;;;;;;25.59;56.32;98619.22;4921019;28;104072;-58
2023/08/09 08:55:54;;;;;;;2.63;1.67;;;;;;;25.70;56.13;98609.63;4922281;28;103251;-60
2023/08/09 08:58:22;;;;;;;2.87;2.03;;;;;;;25.57;57.78;98605.03;4924001;28;102723;-60
2023/08/09 09:00:51;;;;;;;3.20;1.60;;;;;;;26.13;55.61;98600.00;4922254;28;102855;-60
2023/08/09 09:03:19;;;;;;;2.25;1.60;;;;;;;25.69;56.13;98603.38;4920394;28;103382;-60
2023/08/09 09:05:47;;;;;;;3.42;2.08;;;;;;;25.71;57.00;98612.13;4918074;28;103328;-60
2023/08/09 09:08:15;;;;;;;2.77;1.97;;;;;;;25.03;57.71;98610.59;4921463;28;104541;-58
2023/08/09 09:10:48;;;;;;;3.88;1.85;;;;;;;25.66;56.92;98611.09;4922105;28;104075;-58
2023/08/09 09:13:26;;;;;;;2.35;1.52;;;;;;;26.71;54.23;98614.41;4923899;28;103960;-60
2023/08/09 09:15:58;;;;;;;3.30;1.85;;;;;;;25.91;54.58;98606.69;4921723;28;104204;-59
2023/08/09 09:18:28;;;;;;;3.20;1.80;;;;;;;26.11;55.75;98618.31;4925843;28;102772;-60
2023/08/09 09:20:58;;;;;;;3.00;1.70;;;;;;;26.47;54.90;98623.28;4923974;28;102763;-60
2023/08/09 09:23:28;;;;;;;2.03;1.80;;;;;;;26.30;55.22;98622.06;4919850;28;103860;-60
2023/08/09 09:26:09;;;;;;;3.28;1.88;;;;;;;26.15;55.05;98619.59;4923352;28;104344;-60
2023/08/09 09:28:39;;;;;;;2.95;1.70;;;;;;;25.67;56.20;98621.72;4919268;28;103095;-58
2023/08/09 09:31:10;;;;;;;3.45;2.35;;;;;;;25.72;57.54;98616.50;4898924;28;103071;-60
2023/08/09 09:33:40;;;;;;;2.63;1.40;;;;;;;26.22;56.40;98611.44;4919570;28;103684;-60
2023/08/09 09:36:11;;;;;;;2.22;1.60;;;;;;;26.79;54.76;98616.06;4922023;28;103500;-58
2023/08/09 09:38:40;;;;;;;2.13;1.40;;;;;;;26.65;54.50;98625.25;4925404;28;103179;-60
2023/08/09 09:41:12;;;;;;;3.08;2.03;;;;;;;26.09;54.37;98624.97;4922603;28;104162;-60
2023/08/09 09:43:42;;;;;;;2.80;1.88;;;;;;;26.24;56.08;98617.50;4922941;28;104311;-60
2023/08/09 09:46:22;;;;;;;3.90;1.90;;;;;;;26.46;54.87;98618.88;4901339;28;104533;-60
2023/08/09 09:49:00;;;;;;;3.72;2.22;;;;;;;25.46;58.64;98624.56;4917984;28;102700;-60
2023/08/09 09:51:29;;;;;;;2.80;1.73;;;;;;;25.94;56.73;98626.06;4921316;28;102732;-58
2023/08/09 09:53:58;;;;;;;3.35;2.08;;;;;;;26.74;55.46;98629.41;4920947;28;104154;-58
2023/08/09 09:56:28;;;;;;;3.65;2.13;;;;;;;25.94;56.68;98631.47;4922995;28;103272;-60
2023/08/09 09:58:55;;;;;;;2.60;1.73;;;;;;;26.86;54.64;98628.53;4922776;28;102874;-60
2023/08/09 10:01:27;;;;;;;3.58;2.08;;;;;;;27.27;53.91;98622.66;4922244;28;103750;-60
2023/08/09 10:04:06;;;;;;;3.15;1.70;;;;;;;26.76;53.89;98633.56;4911470;28;104213;-59
2023/08/09 10:06:37;;;;;;;3.53;1.70;;;;;;;26.31;55.72;98629.13;4916645;28;103203;-59
2023/08/09 10:09:08;;;;;;;3.88;2.53;;;;;;;26.55;55.20;98642.00;4917998;28;102676;-57
2023/08/09 10:11:37;;;;;;;2.50;2.10;;;;;;;26.48;56.55;98643.88;4921878;28;102870;-58
2023/08/09 10:14:09;;;;;;;4.43;2.22;;;;;;;25.03;60.41;98644.91;4918659;28;103070;-58
2023/08/09 10:16:39;;;;;;;3.30;1.95;;;;;;;26.10;57.83;98632.06;4909129;28;104517;-59
2023/08/09 10:19:15;;;;;;;3.65;2.42;;;;;;;25.77;59.16;98643.75;4917551;28;103825;-59
2023/08/09 10:21:43;;;;;;;4.25;2.10;;;;;;;25.53;61.08;98640.84;4914130;28;104154;-58
2023/08/09 10:24:13;;;;;;;3.30;2.20;;;;;;;25.45;61.05;98649.97;4890587;28;104191;-59
2023/08/09 10:26:44;;;;;;;3.58;2.13;;;;;;;24.67;64.15;98656.78;4916776;28;105418;-59
2023/08/09 10:29:13;;;;;;;3.33;2.30;;;;;;;24.27;66.52;98644.13;4914426;28;102971;-58
2023/08/09 10:31:51;;;;;;;3.65;3.15;;;;;;;24.20;68.26;98657.56;4893959;28;104355;-59
2023/08/09 10:34:23;;;;;;;4.05;3.13;;;;;;;24.22;68.90;98657.38;4911523;28;104310;-58
2023/08/09 10:36:53;;;;;;;4.70;2.30;;;;;;;24.48;67.74;98652.13;4919596;28;103325;-58
2023/08/09 10:39:22;;;;;;;3.75;2.50;;;;;;;24.44;69.76;98650.03;4918756;28;102762;-61
2023/08/09 10:41:55;;;;;;;3.85;2.55;;;;;;;25.10;66.67;98651.13;4921912;28;102800;-58
2023/08/09 10:44:33;;;;;;;5.28;2.50;;;;;;;25.00;67.35;98656.94;4917380;28;103296;-58
2023/08/09 10:47:05;;;;;;;2.77;2.30;;;;;;;25.93;64.69;98651.47;4908889;28;103293;-59
2023/08/09 10:49:34;;;;;;;2.97;2.20;;;;;;;26.45;63.23;98655.13;4918345;28;102911;-58
2023/08/09 10:52:12;;;;;;;4.07;2.50;;;;;;;26.79;61.62;98649.41;4922994;28;102882;-59
2023/08/09 10:54:47;;;;;;;3.33;2.20;;;;;;;26.39;61.43;98647.84;4911434;28;103416;-59
2023/08/09 10:57:16;;;;;;;3.65;2.25;;;;;;;26.42;60.57;98648.25;4917954;28;103075;-61
2023/08/09 10:59:46;;;;;;;3.92;2.50;;;;;;;26.62;60.29;98647.34;4920857;28;102634;-61
2023/08/09 11:02:17;;;;;;;3.60;2.20;;;;;;;27.05;58.35;98652.00;4917888;28;104188;-60
2023/08/09 11:04:48;;;;;;;3.90;2.38;;;;;;;25.94;61.38;98653.13;4917695;28;102969;-58
2023/08/09 11:07:20;;;;;;;2.90;2.22;;;;;;;26.55;59.76;98647.41;4923528;28;103341;-60
2023/08/09 11:09:48;;;;;;;4.63;2.40;;;;;;;26.80;58.50;98651.09;4910110;28;103046;-58
2023/08/09 11:12:17;;;;;;;4.82;2.35;;;;;;;26.65;59.12;98646.94;4920619;28;102840;-59
2023/08/09 11:14:45;;;;;;;2.53;2.28;;;;;;;25.57;60.27;98653.72;4898464;28;104234;-58
2023/08/09 11:17:14;;;;;;;3.13;2.03;;;;;;;26.20;61.71;98649.56;4899727;28;103792;-58
2023/08/09 11:19:43;;;;;;;3.28;2.50;;;;;;;26.55;59.93;98657.41;4911573;28;102778;-58
2023/08/09 11:22:11;;;;;;;3.28;2.40;;;;;;;27.00;62.85;98651.81;4915740;28;104280;-58
2023/08/09 11:24:41;;;;;;;3.42;2.55;;;;;;;26.03;64.88;98648.31;4898592;28;103220;-58
2023/08/09 11:27:15;;;;;;;3.80;2.92;;;;;;;25.88;65.75;98648.53;4919956;28;103226;-59
2023/08/09 11:29:43;;;;;;;2.70;2.50;;;;;;;26.11;66.05;98644.53;4915686;28;102936;-60
2023/08/09 11:32:14;;;;;;;3.47;2.15;;;;;;;27.03;62.28;98640.53;4903716;28;102970;-59
2023/08/09 11:34:43;;;;;;;3.47;2.60;;;;;;;26.86;64.23;98641.25;4908767;28;103300;-58